Portada
METAR-TAF:

METAR-TAF

Aeroports :

Iguaçú, Argentina

latitud: 25-44S, longitud: 054-28W, altitud: 270 m

Observació

L'informe es va fer fa 56 minuts, a les 21:00 UTC
Vent 7 kt del Sud-Oest
Temperatura 27°C
Humitat 70%
Pressió 1009 hPa
Visibilitat 10 km o més
Núvols disperses a una alçada de 2500 ft

METAR: SARI 142100Z 23007KT 9999 SCT025 27/21 Q1009

Hora: 18:56 (21:56 UTC)

Pronòstic

L'informe es va fer fa 4 hores i 56 minuts, a les 17:00 UTC
Pronòstic vàlid del 14 a les 18 UTC al 15 a les 18 UTC
Vent 10 kt del Sud-Oest
Visibilitat 10 km o més
Núvols disperses a una alçada de 1500 ft
Cel ennuvolat a una alçada de 2500 ft
Evolucionant progressivament
l' 14 a les 20 UTC al 14 a les 22 UTC
Visibilitat 10 km o més
Núvols disperses a una alçada de 2000 ft
Probabilitat 30%
l' 15 a les 08 UTC al 15 a les 11 UTC
Visibilitat: 2000 m
boirina

TAF: SARI 141700Z 1418/1518 23010KT 9999 SCT015 BKN025 TX30/1518Z TN21/1510Z BECMG 1420/1422 9999 SCT020 PROB30 1508/1511 2000 BR

Observacions i pronòstics meteorològics de més de 4000 aeroports (METAR i TAF).

Les estacions disponibles són els punts grocs i vermells al mapa.

Posi el ratolí al punt desitjat per veure el nom de l'estació.

Feu clic per veure les observacions i els pronòstics meteorològics.

Per canviar el mapa: feu clic els botons verds amb una creu de color negre per apropar; al botó verd amb un guió per allunyar la imatge; o en les fletxes verdes per a mapes adjacents.


METAR-TAF: